sensor_id;sensor_type;location;lat;lon;timestamp;pressure;altitude;pressure_sealevel;temperature;humidity
46944;BME280;32678;43.852;25.952;2023-01-29T00:01:12;101471.75;;;2.27;96.43
46944;BME280;32678;43.852;25.952;2023-01-29T00:06:09;101472.44;;;2.13;96.92
46944;BME280;32678;43.852;25.952;2023-01-29T00:11:08;101472.59;;;2.24;96.49
46944;BME280;32678;43.852;25.952;2023-01-29T00:16:06;101472.47;;;2.15;97.62
46944;BME280;32678;43.852;25.952;2023-01-29T00:21:02;101482.13;;;2.31;97.26
46944;BME280;32678;43.852;25.952;2023-01-29T00:25:59;101490.88;;;2.41;96.86
46944;BME280;32678;43.852;25.952;2023-01-29T00:30:56;101496.16;;;2.48;96.37
46944;BME280;32678;43.852;25.952;2023-01-29T00:35:54;101513.44;;;2.51;95.07
46944;BME280;32678;43.852;25.952;2023-01-29T00:40:50;101511.09;;;2.74;94.39
46944;BME280;32678;43.852;25.952;2023-01-29T00:46:05;101506.78;;;2.74;94.49
46944;BME280;32678;43.852;25.952;2023-01-29T00:51:03;101509.34;;;2.70;94.45
46944;BME280;32678;43.852;25.952;2023-01-29T00:56:00;101514.88;;;3.04;94.63
46944;BME280;32678;43.852;25.952;2023-01-29T01:00:58;101517.16;;;2.73;93.03
46944;BME280;32678;43.852;25.952;2023-01-29T01:06:03;101508.38;;;2.58;93.08
46944;BME280;32678;43.852;25.952;2023-01-29T01:11:00;101509.97;;;2.49;94.24
46944;BME280;32678;43.852;25.952;2023-01-29T01:15:58;101512.44;;;2.40;95.51
46944;BME280;32678;43.852;25.952;2023-01-29T01:20:55;101515.88;;;2.39;95.15
46944;BME280;32678;43.852;25.952;2023-01-29T01:25:54;101519.41;;;2.44;93.97
46944;BME280;32678;43.852;25.952;2023-01-29T01:30:50;101515.75;;;2.28;95.46
46944;BME280;32678;43.852;25.952;2023-01-29T01:35:47;101519.16;;;2.24;94.64
46944;BME280;32678;43.852;25.952;2023-01-29T01:40:44;101516.38;;;2.12;94.13
46944;BME280;32678;43.852;25.952;2023-01-29T01:45:42;101517.25;;;2.12;94.96
46944;BME280;32678;43.852;25.952;2023-01-29T01:50:44;101515.78;;;2.30;93.50
46944;BME280;32678;43.852;25.952;2023-01-29T01:55:42;101521.75;;;2.26;95.06
46944;BME280;32678;43.852;25.952;2023-01-29T02:00:42;101517.28;;;2.14;94.47
46944;BME280;32678;43.852;25.952;2023-01-29T02:05:38;101512.25;;;2.25;94.90
46944;BME280;32678;43.852;25.952;2023-01-29T02:10:54;101519.28;;;1.73;95.39
46944;BME280;32678;43.852;25.952;2023-01-29T02:15:52;101510.31;;;2.08;94.37
46944;BME280;32678;43.852;25.952;2023-01-29T02:20:53;101513.91;;;2.21;94.61
46944;BME280;32678;43.852;25.952;2023-01-29T02:26:08;101511.75;;;1.88;95.39
46944;BME280;32678;43.852;25.952;2023-01-29T02:31:11;101522.97;;;1.89;95.57
46944;BME280;32678;43.852;25.952;2023-01-29T02:36:15;101527.47;;;2.00;95.08
46944;BME280;32678;43.852;25.952;2023-01-29T02:41:15;101527.97;;;1.78;95.38
46944;BME280;32678;43.852;25.952;2023-01-29T02:46:18;101528.78;;;1.74;96.88
46944;BME280;32678;43.852;25.952;2023-01-29T02:51:19;101531.34;;;1.72;96.79
46944;BME280;32678;43.852;25.952;2023-01-29T02:56:17;101516.56;;;1.64;96.03
46944;BME280;32678;43.852;25.952;2023-01-29T03:01:16;101540.38;;;2.02;95.02
46944;BME280;32678;43.852;25.952;2023-01-29T03:06:17;101535.72;;;1.78;96.04
46944;BME280;32678;43.852;25.952;2023-01-29T03:11:17;101535.91;;;1.89;95.48
46944;BME280;32678;43.852;25.952;2023-01-29T03:16:16;101539.31;;;1.88;95.32
46944;BME280;32678;43.852;25.952;2023-01-29T03:21:17;101535.59;;;1.69;95.11
46944;BME280;32678;43.852;25.952;2023-01-29T03:26:41;101547.00;;;1.83;94.74
46944;BME280;32678;43.852;25.952;2023-01-29T03:32:02;101544.75;;;2.04;94.63
46944;BME280;32678;43.852;25.952;2023-01-29T03:37:00;101553.03;;;1.82;94.65
46944;BME280;32678;43.852;25.952;2023-01-29T03:41:59;101550.34;;;1.74;94.37
46944;BME280;32678;43.852;25.952;2023-01-29T03:47:01;101541.28;;;1.48;95.82
46944;BME280;32678;43.852;25.952;2023-01-29T03:52:06;101554.59;;;1.71;95.26
46944;BME280;32678;43.852;25.952;2023-01-29T03:57:08;101546.84;;;1.71;94.92
46944;BME280;32678;43.852;25.952;2023-01-29T04:02:11;101558.25;;;1.85;94.39
46944;BME280;32678;43.852;25.952;2023-01-29T04:07:12;101554.34;;;1.56;95.73
46944;BME280;32678;43.852;25.952;2023-01-29T04:12:10;101558.09;;;1.76;95.18
46944;BME280;32678;43.852;25.952;2023-01-29T04:17:13;101559.81;;;1.74;94.34
46944;BME280;32678;43.852;25.952;2023-01-29T04:22:23;101565.41;;;2.03;93.12
46944;BME280;32678;43.852;25.952;2023-01-29T04:27:24;101566.44;;;2.15;93.47
46944;BME280;32678;43.852;25.952;2023-01-29T04:32:25;101563.00;;;2.15;92.14
46944;BME280;32678;43.852;25.952;2023-01-29T04:37:28;101566.88;;;1.87;92.94
46944;BME280;32678;43.852;25.952;2023-01-29T04:42:28;101572.22;;;1.98;92.24
46944;BME280;32678;43.852;25.952;2023-01-29T04:47:28;101578.59;;;1.64;93.85
46944;BME280;32678;43.852;25.952;2023-01-29T04:52:31;101572.91;;;1.85;93.67
46944;BME280;32678;43.852;25.952;2023-01-29T04:57:32;101574.94;;;2.07;92.92
46944;BME280;32678;43.852;25.952;2023-01-29T05:02:30;101584.19;;;1.90;92.63
46944;BME280;32678;43.852;25.952;2023-01-29T05:07:30;101592.63;;;1.81;93.22
46944;BME280;32678;43.852;25.952;2023-01-29T05:12:27;101600.66;;;1.96;92.34
46944;BME280;32678;43.852;25.952;2023-01-29T05:17:25;101614.44;;;1.95;92.63
46944;BME280;32678;43.852;25.952;2023-01-29T05:22:22;101611.94;;;2.00;91.63
46944;BME280;32678;43.852;25.952;2023-01-29T05:27:21;101624.13;;;2.08;90.29
46944;BME280;32678;43.852;25.952;2023-01-29T05:32:38;101624.22;;;2.14;90.71
46944;BME280;32678;43.852;25.952;2023-01-29T05:37:35;101626.19;;;2.32;88.69
46944;BME280;32678;43.852;25.952;2023-01-29T05:42:32;101626.88;;;2.19;90.14
46944;BME280;32678;43.852;25.952;2023-01-29T05:47:28;101627.81;;;2.24;90.02
46944;BME280;32678;43.852;25.952;2023-01-29T05:52:26;101638.22;;;2.29;89.41
46944;BME280;32678;43.852;25.952;2023-01-29T05:57:22;101643.91;;;2.06;90.71
46944;BME280;32678;43.852;25.952;2023-01-29T06:02:19;101657.28;;;2.35;88.77
46944;BME280;32678;43.852;25.952;2023-01-29T06:07:17;101657.09;;;2.22;90.12
46944;BME280;32678;43.852;25.952;2023-01-29T06:12:14;101662.28;;;2.23;89.75
46944;BME280;32678;43.852;25.952;2023-01-29T06:17:11;101673.88;;;2.49;88.87
46944;BME280;32678;43.852;25.952;2023-01-29T06:22:08;101681.44;;;2.36;89.71
46944;BME280;32678;43.852;25.952;2023-01-29T06:27:05;101679.75;;;2.36;88.67
46944;BME280;32678;43.852;25.952;2023-01-29T06:32:03;101680.00;;;2.53;87.79
46944;BME280;32678;43.852;25.952;2023-01-29T06:37:00;101690.09;;;2.36;89.08
46944;BME280;32678;43.852;25.952;2023-01-29T06:41:56;101696.28;;;2.44;88.98
46944;BME280;32678;43.852;25.952;2023-01-29T06:46:53;101695.34;;;2.41;89.30
46944;BME280;32678;43.852;25.952;2023-01-29T06:51:50;101699.53;;;2.33;90.30
46944;BME280;32678;43.852;25.952;2023-01-29T06:56:47;101687.56;;;2.41;90.00
46944;BME280;32678;43.852;25.952;2023-01-29T07:01:44;101686.81;;;2.48;89.16
46944;BME280;32678;43.852;25.952;2023-01-29T07:06:41;101700.16;;;2.18;90.17
46944;BME280;32678;43.852;25.952;2023-01-29T07:11:38;101709.72;;;2.22;90.75
46944;BME280;32678;43.852;25.952;2023-01-29T07:16:35;101711.09;;;2.02;92.20
46944;BME280;32678;43.852;25.952;2023-01-29T07:21:32;101715.72;;;2.20;91.49
46944;BME280;32678;43.852;25.952;2023-01-29T07:26:29;101726.28;;;2.35;91.37
46944;BME280;32678;43.852;25.952;2023-01-29T07:31:29;101730.47;;;2.27;90.02
46944;BME280;32678;43.852;25.952;2023-01-29T07:36:26;101739.13;;;2.27;90.96
46944;BME280;32678;43.852;25.952;2023-01-29T07:41:23;101741.81;;;2.33;91.00
46944;BME280;32678;43.852;25.952;2023-01-29T07:46:20;101740.97;;;2.34;91.14
46944;BME280;32678;43.852;25.952;2023-01-29T07:51:17;101744.41;;;2.35;91.51
46944;BME280;32678;43.852;25.952;2023-01-29T07:56:16;101735.16;;;2.49;91.56
46944;BME280;32678;43.852;25.952;2023-01-29T08:01:13;101737.66;;;2.43;90.54
46944;BME280;32678;43.852;25.952;2023-01-29T08:06:10;101740.94;;;2.33;92.27
46944;BME280;32678;43.852;25.952;2023-01-29T08:11:07;101748.00;;;2.43;92.98
46944;BME280;32678;43.852;25.952;2023-01-29T08:16:08;101757.06;;;2.71;92.58
46944;BME280;32678;43.852;25.952;2023-01-29T08:21:05;101738.28;;;2.85;91.55
46944;BME280;32678;43.852;25.952;2023-01-29T08:26:02;101752.03;;;2.81;90.87
46944;BME280;32678;43.852;25.952;2023-01-29T08:30:59;101762.47;;;2.86;90.30
46944;BME280;32678;43.852;25.952;2023-01-29T08:35:56;101757.91;;;2.68;91.54
46944;BME280;32678;43.852;25.952;2023-01-29T08:40:53;101757.09;;;2.74;91.44
46944;BME280;32678;43.852;25.952;2023-01-29T08:45:52;101768.97;;;2.59;92.43
46944;BME280;32678;43.852;25.952;2023-01-29T08:50:52;101787.09;;;2.58;93.56
46944;BME280;32678;43.852;25.952;2023-01-29T08:55:52;101789.25;;;2.86;92.53
46944;BME280;32678;43.852;25.952;2023-01-29T09:00:51;101797.75;;;2.79;92.67
46944;BME280;32678;43.852;25.952;2023-01-29T09:05:47;101794.75;;;3.08;92.25
46944;BME280;32678;43.852;25.952;2023-01-29T09:10:45;101797.38;;;3.11;92.08
46944;BME280;32678;43.852;25.952;2023-01-29T09:15:41;101794.22;;;3.34;91.63
46944;BME280;32678;43.852;25.952;2023-01-29T09:20:38;101782.78;;;3.19;91.78
46944;BME280;32678;43.852;25.952;2023-01-29T09:25:35;101775.88;;;3.19;91.91
46944;BME280;32678;43.852;25.952;2023-01-29T09:30:32;101769.00;;;3.23;91.55
46944;BME280;32678;43.852;25.952;2023-01-29T09:35:32;101756.16;;;3.30;91.87
46944;BME280;32678;43.852;25.952;2023-01-29T09:40:30;101756.94;;;3.25;91.78
46944;BME280;32678;43.852;25.952;2023-01-29T09:45:32;101759.19;;;2.99;92.81
46944;BME280;32678;43.852;25.952;2023-01-29T09:50:31;101755.72;;;2.98;93.02
46944;BME280;32678;43.852;25.952;2023-01-29T09:55:30;101755.00;;;3.07;92.95
46944;BME280;32678;43.852;25.952;2023-01-29T10:00:31;101746.25;;;2.97;93.53
46944;BME280;32678;43.852;25.952;2023-01-29T10:05:33;101740.00;;;2.85;95.12
46944;BME280;32678;43.852;25.952;2023-01-29T10:10:34;101726.41;;;3.01;95.44
46944;BME280;32678;43.852;25.952;2023-01-29T10:15:45;101740.47;;;3.20;93.96
46944;BME280;32678;43.852;25.952;2023-01-29T10:20:46;101730.72;;;3.00;94.23
46944;BME280;32678;43.852;25.952;2023-01-29T10:25:51;101716.06;;;3.01;95.42
46944;BME280;32678;43.852;25.952;2023-01-29T10:30:49;101711.56;;;2.88;94.48
46944;BME280;32678;43.852;25.952;2023-01-29T10:35:47;101729.88;;;3.03;95.66
46944;BME280;32678;43.852;25.952;2023-01-29T10:40:50;101725.72;;;3.14;95.11
46944;BME280;32678;43.852;25.952;2023-01-29T10:45:52;101723.38;;;3.34;93.71
46944;BME280;32678;43.852;25.952;2023-01-29T10:50:56;101712.19;;;3.38;92.81
46944;BME280;32678;43.852;25.952;2023-01-29T10:55:58;101704.41;;;3.36;91.02
46944;BME280;32678;43.852;25.952;2023-01-29T11:01:16;101700.56;;;3.05;94.22
46944;BME280;32678;43.852;25.952;2023-01-29T11:06:15;101680.84;;;3.18;93.32
46944;BME280;32678;43.852;25.952;2023-01-29T11:11:14;101692.88;;;3.12;94.08
46944;BME280;32678;43.852;25.952;2023-01-29T11:16:12;101695.69;;;3.30;93.50
46944;BME280;32678;43.852;25.952;2023-01-29T11:21:09;101695.41;;;3.07;93.92
46944;BME280;32678;43.852;25.952;2023-01-29T11:26:06;101689.34;;;3.07;93.75
46944;BME280;32678;43.852;25.952;2023-01-29T11:36:29;101691.41;;;3.35;93.99
46944;BME280;32678;43.852;25.952;2023-01-29T11:41:28;101689.78;;;3.43;93.87
46944;BME280;32678;43.852;25.952;2023-01-29T11:46:25;101681.16;;;3.44;93.62
46944;BME280;32678;43.852;25.952;2023-01-29T11:51:22;101666.59;;;3.57;93.05
46944;BME280;32678;43.852;25.952;2023-01-29T11:56:21;101677.28;;;3.88;92.74
46944;BME280;32678;43.852;25.952;2023-01-29T12:01:22;101670.38;;;3.92;91.49
46944;BME280;32678;43.852;25.952;2023-01-29T12:06:23;101656.50;;;3.85;91.46
46944;BME280;32678;43.852;25.952;2023-01-29T12:11:26;101648.84;;;4.02;91.19
46944;BME280;32678;43.852;25.952;2023-01-29T12:16:25;101649.72;;;4.03;90.61
46944;BME280;32678;43.852;25.952;2023-01-29T12:21:26;101651.22;;;3.75;89.83
46944;BME280;32678;43.852;25.952;2023-01-29T12:27:00;101650.75;;;3.29;91.22
46944;BME280;32678;43.852;25.952;2023-01-29T12:54:44;101672.94;;;3.86;91.03
46944;BME280;32678;43.852;25.952;2023-01-29T12:59:52;101674.69;;;3.91;90.78
46944;BME280;32678;43.852;25.952;2023-01-29T13:05:04;101670.53;;;4.12;90.66
46944;BME280;32678;43.852;25.952;2023-01-29T13:10:30;101681.03;;;4.25;90.35
46944;BME280;32678;43.852;25.952;2023-01-29T13:15:32;101681.78;;;4.11;88.74
46944;BME280;32678;43.852;25.952;2023-01-29T13:26:07;101683.38;;;3.93;88.59
46944;BME280;32678;43.852;25.952;2023-01-29T13:31:08;101656.94;;;3.43;89.49
46944;BME280;32678;43.852;25.952;2023-01-29T13:36:09;101674.72;;;3.96;89.31
46944;BME280;32678;43.852;25.952;2023-01-29T13:41:10;101679.00;;;3.89;88.78
46944;BME280;32678;43.852;25.952;2023-01-29T13:46:07;101679.00;;;3.89;88.68
46944;BME280;32678;43.852;25.952;2023-01-29T13:51:08;101686.75;;;3.83;89.28
46944;BME280;32678;43.852;25.952;2023-01-29T14:06:50;101689.78;;;4.36;88.57
46944;BME280;32678;43.852;25.952;2023-01-29T14:11:47;101679.47;;;4.47;88.75
46944;BME280;32678;43.852;25.952;2023-01-29T14:16:44;101680.38;;;4.57;88.67
46944;BME280;32678;43.852;25.952;2023-01-29T14:21:46;101680.44;;;4.66;88.24
46944;BME280;32678;43.852;25.952;2023-01-29T14:26:46;101684.75;;;4.61;87.96
46944;BME280;32678;43.852;25.952;2023-01-29T14:31:45;101678.72;;;4.66;87.70
46944;BME280;32678;43.852;25.952;2023-01-29T14:36:42;101683.09;;;4.75;87.87
46944;BME280;32678;43.852;25.952;2023-01-29T14:41:40;101684.78;;;4.70;87.32
46944;BME280;32678;43.852;25.952;2023-01-29T14:46:42;101688.03;;;4.34;86.53
46944;BME280;32678;43.852;25.952;2023-01-29T14:51:40;101683.56;;;4.15;86.63
46944;BME280;32678;43.852;25.952;2023-01-29T14:56:39;101672.97;;;3.92;87.58
46944;BME280;32678;43.852;25.952;2023-01-29T15:01:37;101668.19;;;3.44;89.54
46944;BME280;32678;43.852;25.952;2023-01-29T15:06:37;101664.91;;;3.60;89.97
46944;BME280;32678;43.852;25.952;2023-01-29T15:11:39;101677.63;;;3.39;91.39
46944;BME280;32678;43.852;25.952;2023-01-29T15:16:44;101677.56;;;3.33;92.52
46944;BME280;32678;43.852;25.952;2023-01-29T15:22:03;101683.56;;;3.29;93.41
46944;BME280;32678;43.852;25.952;2023-01-29T15:27:00;101675.00;;;3.34;93.60
46944;BME280;32678;43.852;25.952;2023-01-29T15:31:57;101682.09;;;3.51;93.23
46944;BME280;32678;43.852;25.952;2023-01-29T15:36:54;101672.53;;;3.48;93.30
46944;BME280;32678;43.852;25.952;2023-01-29T15:42:03;101682.91;;;3.45;93.60
46944;BME280;32678;43.852;25.952;2023-01-29T15:47:00;101676.09;;;3.58;93.53
46944;BME280;32678;43.852;25.952;2023-01-29T15:51:58;101694.28;;;3.62;93.34
46944;BME280;32678;43.852;25.952;2023-01-29T15:56:57;101671.00;;;3.67;91.44
46944;BME280;32678;43.852;25.952;2023-01-29T16:01:57;101685.72;;;3.66;93.09
46944;BME280;32678;43.852;25.952;2023-01-29T16:06:54;101691.50;;;3.41;93.61
46944;BME280;32678;43.852;25.952;2023-01-29T16:11:52;101691.63;;;3.55;92.39
46944;BME280;32678;43.852;25.952;2023-01-29T16:16:49;101693.22;;;3.40;93.08
46944;BME280;32678;43.852;25.952;2023-01-29T16:21:49;101697.50;;;3.38;93.27
46944;BME280;32678;43.852;25.952;2023-01-29T16:26:47;101695.53;;;3.18;94.32
46944;BME280;32678;43.852;25.952;2023-01-29T16:31:45;101693.97;;;3.30;92.72
46944;BME280;32678;43.852;25.952;2023-01-29T16:36:43;101690.56;;;3.37;91.23
46944;BME280;32678;43.852;25.952;2023-01-29T16:41:41;101697.13;;;3.08;93.28
46944;BME280;32678;43.852;25.952;2023-01-29T16:46:43;101704.78;;;2.97;92.69
46944;BME280;32678;43.852;25.952;2023-01-29T16:51:40;101703.19;;;3.09;92.84
46944;BME280;32678;43.852;25.952;2023-01-29T16:56:37;101695.41;;;3.09;93.35
46944;BME280;32678;43.852;25.952;2023-01-29T17:01:35;101698.03;;;3.10;94.32
46944;BME280;32678;43.852;25.952;2023-01-29T17:06:32;101692.78;;;3.02;93.56
46944;BME280;32678;43.852;25.952;2023-01-29T17:11:30;101698.72;;;2.97;93.38
46944;BME280;32678;43.852;25.952;2023-01-29T17:16:28;101690.63;;;2.74;94.58
46944;BME280;32678;43.852;25.952;2023-01-29T17:21:27;101687.53;;;2.99;93.11
46944;BME280;32678;43.852;25.952;2023-01-29T17:26:24;101692.69;;;2.96;93.73
46944;BME280;32678;43.852;25.952;2023-01-29T17:31:21;101678.72;;;2.85;94.49
46944;BME280;32678;43.852;25.952;2023-01-29T17:36:18;101655.59;;;3.00;94.09
46944;BME280;32678;43.852;25.952;2023-01-29T17:41:17;101671.06;;;2.93;94.33
46944;BME280;32678;43.852;25.952;2023-01-29T17:46:16;101666.56;;;2.81;95.14
46944;BME280;32678;43.852;25.952;2023-01-29T17:51:16;101656.34;;;2.92;95.70
46944;BME280;32678;43.852;25.952;2023-01-29T17:56:14;101660.56;;;2.84;96.07
46944;BME280;32678;43.852;25.952;2023-01-29T18:01:11;101652.59;;;2.70;97.75
46944;BME280;32678;43.852;25.952;2023-01-29T18:06:08;101663.91;;;2.75;99.04
46944;BME280;32678;43.852;25.952;2023-01-29T18:11:05;101663.25;;;2.91;98.59
46944;BME280;32678;43.852;25.952;2023-01-29T18:16:02;101663.34;;;2.99;98.02
46944;BME280;32678;43.852;25.952;2023-01-29T18:20:59;101671.00;;;2.90;97.89
46944;BME280;32678;43.852;25.952;2023-01-29T18:25:56;101663.19;;;2.88;97.83
46944;BME280;32678;43.852;25.952;2023-01-29T18:30:53;101659.97;;;3.04;96.73
46944;BME280;32678;43.852;25.952;2023-01-29T18:35:50;101664.44;;;3.19;96.49
46944;BME280;32678;43.852;25.952;2023-01-29T18:40:50;101661.09;;;3.26;95.58
46944;BME280;32678;43.852;25.952;2023-01-29T18:45:48;101670.47;;;3.18;95.32
46944;BME280;32678;43.852;25.952;2023-01-29T18:50:45;101663.63;;;3.22;96.22
46944;BME280;32678;43.852;25.952;2023-01-29T18:55:41;101667.44;;;3.56;95.49
46944;BME280;32678;43.852;25.952;2023-01-29T19:00:39;101673.75;;;3.82;94.93
46944;BME280;32678;43.852;25.952;2023-01-29T19:05:36;101666.00;;;3.86;93.40
46944;BME280;32678;43.852;25.952;2023-01-29T19:10:33;101670.50;;;4.07;93.70
46944;BME280;32678;43.852;25.952;2023-01-29T19:15:30;101677.59;;;4.25;92.73
46944;BME280;32678;43.852;25.952;2023-01-29T19:20:28;101676.75;;;4.29;91.99
46944;BME280;32678;43.852;25.952;2023-01-29T19:25:24;101668.06;;;4.27;91.36
46944;BME280;32678;43.852;25.952;2023-01-29T19:30:21;101678.50;;;4.33;91.82
46944;BME280;32678;43.852;25.952;2023-01-29T19:35:18;101667.34;;;4.45;91.42
46944;BME280;32678;43.852;25.952;2023-01-29T19:40:16;101670.81;;;4.48;91.05
46944;BME280;32678;43.852;25.952;2023-01-29T19:45:13;101663.88;;;4.46;90.57
46944;BME280;32678;43.852;25.952;2023-01-29T19:50:12;101661.25;;;4.46;89.86
46944;BME280;32678;43.852;25.952;2023-01-29T19:55:09;101663.63;;;4.12;90.13
46944;BME280;32678;43.852;25.952;2023-01-29T20:00:08;101668.78;;;4.08;91.06
46944;BME280;32678;43.852;25.952;2023-01-29T20:05:06;101668.91;;;4.23;90.83
46944;BME280;32678;43.852;25.952;2023-01-29T20:10:07;101663.72;;;4.20;90.85
46944;BME280;32678;43.852;25.952;2023-01-29T20:15:07;101669.00;;;4.33;90.48
46944;BME280;32678;43.852;25.952;2023-01-29T20:20:06;101667.34;;;4.48;90.61
46944;BME280;32678;43.852;25.952;2023-01-29T20:25:03;101669.13;;;4.56;89.97
46944;BME280;32678;43.852;25.952;2023-01-29T20:30:01;101678.59;;;4.48;89.00
46944;BME280;32678;43.852;25.952;2023-01-29T20:34:58;101681.16;;;4.45;88.83
46944;BME280;32678;43.852;25.952;2023-01-29T20:39:55;101676.88;;;4.49;88.95
46944;BME280;32678;43.852;25.952;2023-01-29T20:44:51;101679.47;;;4.50;88.67
46944;BME280;32678;43.852;25.952;2023-01-29T20:49:48;101677.78;;;4.54;88.76
46944;BME280;32678;43.852;25.952;2023-01-29T20:54:45;101676.00;;;4.47;88.54
46944;BME280;32678;43.852;25.952;2023-01-29T20:59:42;101680.25;;;4.34;88.46
46944;BME280;32678;43.852;25.952;2023-01-29T21:04:39;101681.94;;;4.29;88.56
46944;BME280;32678;43.852;25.952;2023-01-29T21:09:39;101682.78;;;4.25;88.69
46944;BME280;32678;43.852;25.952;2023-01-29T21:14:36;101680.13;;;4.22;88.28
46944;BME280;32678;43.852;25.952;2023-01-29T21:19:33;101687.88;;;4.16;87.94
46944;BME280;32678;43.852;25.952;2023-01-29T21:24:30;101679.94;;;3.98;87.43
46944;BME280;32678;43.852;25.952;2023-01-29T21:29:26;101677.91;;;3.65;87.01
46944;BME280;32678;43.852;25.952;2023-01-29T21:34:24;101692.31;;;3.38;87.25
46944;BME280;32678;43.852;25.952;2023-01-29T21:39:21;101685.56;;;3.51;86.53
46944;BME280;32678;43.852;25.952;2023-01-29T21:44:19;101696.41;;;3.17;86.62
46944;BME280;32678;43.852;25.952;2023-01-29T21:49:16;101688.56;;;3.12;86.48
46944;BME280;32678;43.852;25.952;2023-01-29T21:54:13;101681.72;;;3.17;85.43
46944;BME280;32678;43.852;25.952;2023-01-29T21:59:10;101680.59;;;2.97;85.99
46944;BME280;32678;43.852;25.952;2023-01-29T22:04:06;101673.56;;;2.87;86.39
46944;BME280;32678;43.852;25.952;2023-01-29T22:09:04;101672.91;;;3.04;85.73
46944;BME280;32678;43.852;25.952;2023-01-29T22:14:02;101670.97;;;2.87;86.21
46944;BME280;32678;43.852;25.952;2023-01-29T22:18:59;101668.22;;;2.73;85.77
46944;BME280;32678;43.852;25.952;2023-01-29T22:23:55;101666.31;;;2.61;86.31
46944;BME280;32678;43.852;25.952;2023-01-29T22:28:52;101662.63;;;2.44;87.52
46944;BME280;32678;43.852;25.952;2023-01-29T22:33:49;101673.09;;;2.55;88.38
46944;BME280;32678;43.852;25.952;2023-01-29T22:38:48;101670.50;;;2.52;87.94
46944;BME280;32678;43.852;25.952;2023-01-29T22:43:45;101670.53;;;2.55;87.16
46944;BME280;32678;43.852;25.952;2023-01-29T22:48:41;101664.56;;;2.59;87.99
46944;BME280;32678;43.852;25.952;2023-01-29T22:53:39;101667.16;;;2.59;88.04
46944;BME280;32678;43.852;25.952;2023-01-29T22:58:36;101658.78;;;2.78;87.88
46944;BME280;32678;43.852;25.952;2023-01-29T23:03:33;101661.22;;;2.69;86.98
46944;BME280;32678;43.852;25.952;2023-01-29T23:08:30;101666.28;;;2.60;86.77
46944;BME280;32678;43.852;25.952;2023-01-29T23:13:28;101664.72;;;2.71;86.44
46944;BME280;32678;43.852;25.952;2023-01-29T23:18:24;101655.22;;;2.72;85.97
46944;BME280;32678;43.852;25.952;2023-01-29T23:23:21;101652.41;;;2.53;86.74
46944;BME280;32678;43.852;25.952;2023-01-29T23:28:18;101656.00;;;2.66;85.73
46944;BME280;32678;43.852;25.952;2023-01-29T23:33:15;101652.06;;;2.32;87.41
46944;BME280;32678;43.852;25.952;2023-01-29T23:38:12;101635.22;;;2.60;86.33
46944;BME280;32678;43.852;25.952;2023-01-29T23:43:08;101625.94;;;2.15;88.38
46944;BME280;32678;43.852;25.952;2023-01-29T23:48:05;101647.00;;;2.40;87.77
46944;BME280;32678;43.852;25.952;2023-01-29T23:53:02;101653.28;;;2.54;86.66
46944;BME280;32678;43.852;25.952;2023-01-29T23:57:59;101643.53;;;2.38;86.62
